• Join FlightAware (Why Join?)
  • Login
  • US Flag 
02:25AM EST


 

Airport Tracker/Info


-or-


 

Live Flight TrackerFlight Track Log ✈ FSR411 ✈ 11-May-2014 ✈ KDZB - KCMI

Flight Track Log - Related Links

Times and Time Zones

All times are in EDT time to prevent confusion due to time zone crossing. See the FSR411 flight status page for this flight to view local times or setup timezone preferences in your user account.

Time Position Orientation Groundspeed Altitude Reporting Facility
EDT Latitude Longitude Course Direction KTS MPH feet Rate Location/Type
01:14PM 31.1970 -98.1197 40° Northeast  Level FlightAware Approximate
01:15PM 31.2864 -98.0303 40° Northeast  Level FlightAware Approximate
01:16PM 31.3759 -97.9408 40° Northeast  Level FlightAware Approximate
01:16PM 30.5006 -98.3108 40° Northeast 260 299 3,100  Level Houston Center
01:17PM 31.4653 -97.8513 40° Northeast  Level FlightAware Approximate
01:17PM 30.5717 -98.2775 22° Northeast 273 314 3,000  Level Houston Center
01:18PM 31.5591 -97.7679 37° Northeast  Level FlightAware Approximate
01:18PM 30.6483 -98.2603 11° North 274 315 4,800  Level Houston Center
01:19PM 31.6467 -97.6767 49° Northeast  Level FlightAware Approximate
01:19PM 30.7314 -98.2417 11° North 285 328 8,400  Level Houston Center
01:20PM 31.7373 -97.5895 36° Northeast  Level FlightAware Approximate
01:20PM 30.8167 -98.2244 10° North 297 342 12,200  Level Houston Center
01:21PM 31.8296 -97.5038 40° Northeast  Level FlightAware Approximate
01:21PM 30.9031 -98.1708 28° Northeast 334 384 15,600  Level Houston Center
01:22PM 31.0042 -98.0747 39° Northeast 377 434 19,600 3,180 Climbing Houston Center
01:23PM 31.0942 -97.9911 38° Northeast 417 480 22,400 2,700 Climbing Fort Worth Center
01:24PM 31.1889 -97.9008 39° Northeast 434 499 25,400 2,400 Climbing Fort Worth Center
01:25PM 31.2878 -97.8089 38° Northeast 448 516 27,400 1,920 Climbing Fort Worth Center
01:26PM 31.3903 -97.7136 38° Northeast 464 534 29,400 2,100 Climbing Fort Worth Center
01:27PM 31.5147 -97.5947 39° Northeast 474 545 31,800 2,100 Climbing Fort Worth Center
01:28PM 31.6181 -97.4961 39° Northeast 475 547 33,800 1,500 Climbing Fort Worth Center
01:29PM 31.7217 -97.3989 39° Northeast 476 548 35,000 960 Climbing Fort Worth Center
01:30PM 31.8292 -97.2953 39° Northeast 493 567 35,800 480 Climbing Fort Worth Center
01:31PM 31.9381 -97.1908 39° Northeast 501 577 36,000 60 Climbing Fort Worth Center
01:32PM 32.0564 -97.0753 40° Northeast 502 578 36,000 180 Level Fort Worth Center
01:33PM 32.1631 -96.9739 39° Northeast 498 573 36,400 840 Climbing Fort Worth Center
01:34PM 32.2694 -96.8725 39° Northeast 495 570 37,800 1,320 Climbing Fort Worth Center
01:35PM 32.3731 -96.7722 39° Northeast 487 560 39,200 1,200 Climbing Fort Worth Center
01:36PM 32.4969 -96.6503 40° Northeast 486 559 40,400 840 Climbing Fort Worth Center
01:37PM 32.6000 -96.5506 39° Northeast 485 558 41,000 240 Climbing Fort Worth Center
01:38PM 32.7050 -96.4489 39° Northeast 487 560 41,000  Level Fort Worth Center
01:39PM 32.8092 -96.3469 39° Northeast 488 562 41,000  Level Fort Worth Center
01:40PM 32.9122 -96.2447 40° Northeast 487 560 41,000  Level Fort Worth Center
01:41PM 33.0336 -96.1244 40° Northeast 480 552 41,000  Level Fort Worth Center
01:42PM 33.1364 -96.0236 39° Northeast 479 551 41,000  Level Fort Worth Center
01:43PM 33.2375 -95.9219 40° Northeast 479 551 41,000  Level Fort Worth Center
01:45PM 33.3400 -95.8211 39° Northeast 479 551 41,000  Level Fort Worth Center
01:46PM 33.4411 -95.7189 40° Northeast 479 551 41,000  Level Fort Worth Center
01:47PM 33.5439 -95.6169 40° Northeast 479 551 41,000  Level Fort Worth Center
01:48PM 33.6553 -95.5014 41° Northeast 479 551 41,000  Level Fort Worth Center
01:49PM 33.7581 -95.3981 40° Northeast 479 551 41,000  Level Fort Worth Center
01:50PM 33.8597 -95.2947 40° Northeast 481 554 41,000  Level Fort Worth Center
01:51PM 33.9642 -95.1883 40° Northeast 485 558 41,000  Level Fort Worth Center
01:52PM 34.0878 -95.0628 40° Northeast 484 557 41,000  Level Fort Worth Center
01:53PM 34.1914 -94.9569 40° Northeast 484 557 41,000  Level Fort Worth Center
01:54PM 34.2961 -94.8489 40° Northeast 493 567 41,000  Level Fort Worth Center
01:55PM 34.3986 -94.7433 40° Northeast 488 562 41,000  Level Fort Worth Center
01:56PM 34.5014 -94.6372 40° Northeast 486 559 41,000  Level Fort Worth Center
01:57PM 34.6036 -94.5292 41° Northeast 486 559 41,000  Level Fort Worth Center
01:58PM 34.7058 -94.4236 40° Northeast 485 558 41,000  Level Fort Worth Center
01:59PM 34.8281 -94.2958 41° Northeast 484 557 41,000  Level Fort Worth Center
02:00PM 34.9322 -94.1850 41° Northeast 484 557 41,000  Level Fort Worth Center
02:01PM 35.0344 -94.0783 40° Northeast 483 556 41,000  Level Fort Worth Center
02:02PM 35.1356 -93.9711 41° Northeast 483 556 41,000  Level Fort Worth Center
02:03PM 35.2375 -93.8639 41° Northeast 482 555 41,000  Level Fort Worth Center
02:04PM 35.3386 -93.7553 41° Northeast 482 555 41,000  Level Fort Worth Center
02:05PM 35.4400 -93.6467 41° Northeast 482 555 41,000  Level Fort Worth Center
02:06PM 35.5822 -93.4950 41° Northeast 482 555 41,000  Level Memphis Center
02:07PM 35.6831 -93.3861 41° Northeast 482 555 41,000  Level Memphis Center
02:09PM 35.7833 -93.2781 41° Northeast 480 552 41,000  Level Memphis Center
02:10PM 35.8822 -93.1708 41° Northeast 474 545 41,000  Level Memphis Center
02:11PM 35.9803 -93.0622 42° Northeast 474 545 41,000  Level Memphis Center
02:12PM 36.0794 -92.9539 41° Northeast 474 545 41,000  Level Memphis Center
02:13PM 36.1772 -92.8458 42° Northeast 474 545 41,000  Level Memphis Center
02:14PM 36.2761 -92.7375 41° Northeast 474 545 41,000  Level Memphis Center
02:15PM 36.3958 -92.6061 41° Northeast 475 547 41,000  Level Memphis Center
02:16PM 36.4956 -92.4953 42° Northeast 475 547 41,000  Level Memphis Center
02:17PM 36.5953 -92.3847 42° Northeast 475 547 41,000  Level Memphis Center
02:18PM 36.6936 -92.2742 42° Northeast 475 547 41,000  Level Memphis Center
02:19PM 36.7925 -92.1633 42° Northeast 476 548 41,000  Level Memphis Center
02:20PM 36.8919 -92.0531 42° Northeast 476 548 41,000  Level Memphis Center
02:21PM 36.9914 -91.9408 42° Northeast 476 548 41,000  Level Memphis Center
02:22PM 37.1092 -91.8050 43° Northeast 476 548 41,000  Level Memphis Center
02:23PM 37.2069 -91.6936 42° Northeast 477 549 41,000  Level Memphis Center
02:24PM 37.3081 -91.5783 42° Northeast 479 551 41,000  Level Kansas City Center
02:25PM 37.4067 -91.4667 42° Northeast 479 551 41,000  Level Kansas City Center
02:26PM 37.5247 -91.3308 42° Northeast 479 551 41,000  Level Kansas City Center
02:27PM 37.6233 -91.2181 42° Northeast 479 551 41,000  Level Kansas City Center
02:28PM 37.7203 -91.1039 43° Northeast 479 551 41,000  Level Kansas City Center
02:29PM 37.8139 -90.9947 43° Northeast 479 551 41,000 -480 Level Kansas City Center
02:30PM 37.8886 -90.8569 55° Northeast 479 551 40,100 -1,200 Descending Kansas City Center
02:31PM 37.9592 -90.7147 58° Northeast 481 554 38,600 -1,560 Descending Kansas City Center
02:32PM 38.0356 -90.5306 62° Northeast 489 563 36,900 -1,500 Descending Kansas City Center
02:33PM 38.1000 -90.3786 62° Northeast 490 564 35,500 -1,260 Descending Kansas City Center
02:34PM 38.1647 -90.2275 61° Northeast 493 567 34,400 -1,260 Descending Kansas City Center
02:35PM 38.2294 -90.0756 61° Northeast 492 566 32,900 -1,560 Descending Kansas City Center
02:36PM 38.2981 -89.9192 61° Northeast 503 579 31,200 -1,800 Descending Kansas City Center
02:37PM 38.4050 -89.7556 50° Northeast 500 575 29,200 -1,740 Descending Kansas City Center
02:39PM 38.5161 -89.6556 35° Northeast 517 595 27,600 -1,260 Descending Kansas City Center
02:40PM 38.6275 -89.5614 33° Northeast 493 567 26,600 -1,200 Descending Kansas City Center
02:41PM 38.7397 -89.4728 32° Northeast 488 562 25,200 -1,620 Descending Kansas City Center
02:42PM 38.8792 -89.3858 26° Northeast 481 554 23,300 -1,800 Descending Kansas City Center
02:43PM 38.9792 -89.2933 36° Northeast 453 521 21,500 -1,800 Descending Kansas City Center
02:44PM 39.0792 -89.1967 37° Northeast 452 520 19,700 -1,860 Descending Kansas City Center
02:45PM 39.1794 -89.1047 35° Northeast 451 519 17,700 -1,920 Descending Kansas City Center
02:46PM 39.2764 -89.0161 35° Northeast 441 507 15,800 -1,980 Descending Kansas City Center
02:47PM 39.3650 -88.9306 37° Northeast 420 483 13,800 -2,040 Descending Kansas City Center
02:48PM 39.4653 -88.8306 38° Northeast 391 450 11,700 -1,560 Descending Kansas City Center
02:49PM 39.5458 -88.7533 36° Northeast 380 437 10,600 -1,560 Descending Kansas City Center
02:50PM 39.6172 -88.6839 37° Northeast 357 411 8,600 -1,620 Descending Kansas City Center
02:51PM 39.6850 -88.6189 36° Northeast 333 383 7,200 -1,320 Descending Kansas City Center
02:52PM 39.7494 -88.5575 36° Northeast 314 361 5,900 -1,020 Descending Kansas City Center
02:53PM 39.8150 -88.4953 36° Northeast 303 349 5,100 -1,080 Descending Kansas City Center
02:54PM 39.8881 -88.4244 37° Northeast 299 344 3,700 -1,380 Descending Kansas City Center
02:56PM 40.0000 -88.3157 27° Northeast  Level Estimated
03:03PM 40.0333 -88.2667 27° Northeast  Level FlightAware Approximate
03:04PM 40.0388 -88.2778 27° Northeast  Level Estimated
03:05PM 40.0388 -88.2778 27° Northeast  Level Estimated
03:06PM 40.0388 -88.2778 27° Northeast  Level Estimated